createdAt,value
2018-06-30T00:00:59.660Z,1012.87
2018-06-30T00:02:09.124Z,1012.86
2018-06-30T00:03:19.088Z,1012.91
2018-06-30T00:04:29.056Z,1012.92
2018-06-30T00:05:38.784Z,1012.92
2018-06-30T00:06:48.743Z,1012.9
2018-06-30T00:07:58.710Z,1012.92
2018-06-30T00:09:08.683Z,1012.89
2018-06-30T00:10:18.671Z,1012.9
2018-06-30T00:11:28.263Z,1012.92
2018-06-30T00:12:38.229Z,1012.9
2018-06-30T00:13:48.220Z,1012.92
2018-06-30T00:14:57.933Z,1012.92
2018-06-30T00:16:07.944Z,1012.95
2018-06-30T00:17:17.916Z,1012.98
2018-06-30T00:18:27.885Z,1012.95
2018-06-30T00:19:37.853Z,1012.98
2018-06-30T00:20:47.819Z,1012.96
2018-06-30T00:21:57.810Z,1012.98
2018-06-30T00:23:07.794Z,1012.97
2018-06-30T00:24:17.496Z,1013.02
2018-06-30T00:25:27.469Z,1013.03
2018-06-30T00:26:37.432Z,1013.05
2018-06-30T00:27:46.890Z,1013.07
2018-06-30T00:28:56.885Z,1013.07
2018-06-30T00:30:06.860Z,1013.07
2018-06-30T00:31:16.815Z,1013.13
2018-06-30T00:32:26.797Z,1013.09
2018-06-30T00:33:36.746Z,1013.1
2018-06-30T00:34:46.437Z,1013.08
2018-06-30T00:35:56.152Z,1013.11
2018-06-30T00:37:06.125Z,1013.05
2018-06-30T00:38:15.860Z,1013.1
2018-06-30T00:39:25.589Z,1013.09
2018-06-30T00:40:35.545Z,1013.08
2018-06-30T00:41:45.245Z,1013.1
2018-06-30T00:42:55.210Z,1013.08
2018-06-30T00:44:05.184Z,1013.09
2018-06-30T00:45:15.143Z,1013.09
2018-06-30T00:46:25.105Z,1013.06
2018-06-30T00:47:35.068Z,1013.08
2018-06-30T00:48:44.764Z,1013.1
2018-06-30T00:49:54.464Z,1013.14
2018-06-30T00:51:04.168Z,1013.13
2018-06-30T00:52:13.653Z,1013.15
2018-06-30T00:53:23.751Z,1013.18
2018-06-30T00:54:33.452Z,1013.14
2018-06-30T00:55:43.412Z,1013.19
2018-06-30T00:56:53.369Z,1013.18
2018-06-30T00:58:03.331Z,1013.2
2018-06-30T00:59:13.297Z,1013.2
2018-06-30T01:00:23.260Z,1013.19
2018-06-30T01:01:33.231Z,1013.26
2018-06-30T01:02:42.935Z,1013.21
2018-06-30T01:03:52.628Z,1013.23
2018-06-30T01:05:02.599Z,1013.21
2018-06-30T01:06:12.041Z,1013.26
2018-06-30T01:07:22.019Z,1013.24
2018-06-30T01:08:31.975Z,1013.23
2018-06-30T01:09:41.943Z,1013.26
2018-06-30T01:10:51.915Z,1013.29
2018-06-30T01:12:01.875Z,1013.29
2018-06-30T01:13:11.849Z,1013.28
2018-06-30T01:14:21.549Z,1013.3
2018-06-30T01:15:31.277Z,1013.31
2018-06-30T01:16:40.992Z,1013.34
2018-06-30T01:17:50.966Z,1013.34
2018-06-30T01:19:00.688Z,1013.33
2018-06-30T01:20:10.649Z,1013.35
2018-06-30T01:21:20.612Z,1013.38
2018-06-30T01:22:30.581Z,1013.4
2018-06-30T01:23:40.288Z,1013.41
2018-06-30T01:24:49.986Z,1013.43
2018-06-30T01:25:59.693Z,1013.43
2018-06-30T01:27:09.656Z,1013.43
2018-06-30T01:28:19.628Z,1013.46
2018-06-30T01:29:29.612Z,1013.49
2018-06-30T01:30:39.632Z,1013.5
2018-06-30T01:31:49.590Z,1013.48
2018-06-30T01:32:59.299Z,1013.47
2018-06-30T01:34:09.006Z,1013.45
2018-06-30T01:35:18.721Z,1013.49
2018-06-30T01:36:28.679Z,1013.45
2018-06-30T01:37:38.658Z,1013.5
2018-06-30T01:38:48.634Z,1013.48
2018-06-30T01:39:58.339Z,1013.5
2018-06-30T01:41:08.308Z,1013.51
2018-06-30T01:42:18.273Z,1013.47
2018-06-30T01:43:28.247Z,1013.5
2018-06-30T01:44:38.204Z,1013.5
2018-06-30T01:45:47.908Z,1013.5
2018-06-30T01:46:57.875Z,1013.49
2018-06-30T01:48:07.849Z,1013.52
2018-06-30T01:49:17.566Z,1013.52
2018-06-30T01:50:27.532Z,1013.54
2018-06-30T01:51:37.256Z,1013.54
2018-06-30T01:52:47.225Z,1013.52
2018-06-30T01:53:57.186Z,1013.54
2018-06-30T01:55:06.888Z,1013.56
2018-06-30T01:56:16.339Z,1013.54
2018-06-30T01:57:25.790Z,1013.58
2018-06-30T01:58:35.754Z,1013.59
2018-06-30T01:59:45.724Z,1013.57
2018-06-30T02:00:55.433Z,1013.55
2018-06-30T02:02:04.621Z,1013.58
2018-06-30T02:03:14.317Z,1013.59
2018-06-30T02:04:24.015Z,1013.59
2018-06-30T02:05:33.983Z,1013.59
2018-06-30T02:06:43.945Z,1013.56
2018-06-30T02:07:53.645Z,1013.59
2018-06-30T02:09:03.365Z,1013.61
2018-06-30T02:10:13.067Z,1013.63
2018-06-30T02:11:23.031Z,1013.63
2018-06-30T02:12:32.473Z,1013.65
2018-06-30T02:13:42.440Z,1013.64
2018-06-30T02:14:52.402Z,1013.61
2018-06-30T02:16:02.380Z,1013.68
2018-06-30T02:17:12.344Z,1013.64
2018-06-30T02:18:22.301Z,1013.67
2018-06-30T02:19:32.270Z,1013.68
2018-06-30T02:20:42.240Z,1013.71
2018-06-30T02:21:52.196Z,1013.71
2018-06-30T02:23:02.174Z,1013.71
2018-06-30T02:24:12.136Z,1013.73
2018-06-30T02:25:21.834Z,1013.73
2018-06-30T02:26:31.553Z,1013.71
2018-06-30T02:27:41.515Z,1013.75
2018-06-30T02:28:51.466Z,1013.7
2018-06-30T02:30:01.171Z,1013.75
2018-06-30T02:31:11.143Z,1013.67
2018-06-30T02:32:21.108Z,1013.74
2018-06-30T02:33:31.082Z,1013.74
2018-06-30T02:34:41.050Z,1013.77
2018-06-30T02:35:51.034Z,1013.77
2018-06-30T02:37:00.503Z,1013.79
2018-06-30T02:38:10.479Z,1013.82
2018-06-30T02:39:20.446Z,1013.85
2018-06-30T02:40:30.421Z,1013.82
2018-06-30T02:41:40.390Z,1013.82
2018-06-30T02:42:50.380Z,1013.83
2018-06-30T02:44:00.358Z,1013.84
2018-06-30T02:45:10.322Z,1013.83
2018-06-30T02:46:20.290Z,1013.85
2018-06-30T02:47:30.257Z,1013.85
2018-06-30T02:48:40.214Z,1013.85
2018-06-30T02:49:50.201Z,1013.94
2018-06-30T02:51:00.170Z,1013.91
2018-06-30T02:52:09.881Z,1013.94
2018-06-30T02:53:19.858Z,1013.96
2018-06-30T02:54:29.841Z,1013.96
2018-06-30T02:55:39.797Z,1013.94
2018-06-30T02:56:49.774Z,1013.93
2018-06-30T02:57:59.496Z,1013.97
2018-06-30T02:59:09.464Z,1013.97
2018-06-30T03:00:19.431Z,1013.96
2018-06-30T03:01:29.418Z,1013.95
2018-06-30T03:02:39.395Z,1013.93
2018-06-30T03:03:49.103Z,1013.98
2018-06-30T03:04:58.809Z,1014
2018-06-30T03:06:08.775Z,1014.02
2018-06-30T03:07:18.743Z,1014.06
2018-06-30T03:08:28.714Z,1014.06
2018-06-30T03:09:38.688Z,1014.06
2018-06-30T03:10:48.396Z,1014.05
2018-06-30T03:11:58.346Z,1014.06
2018-06-30T03:13:08.328Z,1014.12
2018-06-30T03:14:18.307Z,1014.11
2018-06-30T03:15:28.397Z,1014.13
2018-06-30T03:16:38.106Z,1014.1
2018-06-30T03:17:47.808Z,1014.12
2018-06-30T03:18:57.763Z,1014.1
2018-06-30T03:20:07.730Z,1014.12
2018-06-30T03:21:17.191Z,1014.1
2018-06-30T03:22:27.156Z,1014.16
2018-06-30T03:23:37.128Z,1014.14
2018-06-30T03:24:47.091Z,1014.12
2018-06-30T03:25:56.794Z,1014.18
2018-06-30T03:27:06.506Z,1014.16
2018-06-30T03:28:16.465Z,1014.19
2018-06-30T03:29:26.427Z,1014.21
2018-06-30T03:30:36.407Z,1014.19
2018-06-30T03:31:46.543Z,1014.24
2018-06-30T03:32:56.546Z,1014.21
2018-06-30T03:34:06.256Z,1014.24
2018-06-30T03:35:15.953Z,1014.25
2018-06-30T03:36:25.912Z,1014.24
2018-06-30T03:37:35.877Z,1014.28
2018-06-30T03:38:45.835Z,1014.25
2018-06-30T03:39:55.809Z,1014.27
2018-06-30T03:41:05.256Z,1014.27
2018-06-30T03:42:15.224Z,1014.3
2018-06-30T03:43:25.197Z,1014.29
2018-06-30T03:44:35.209Z,1014.3
2018-06-30T03:45:44.909Z,1014.29
2018-06-30T03:46:54.871Z,1014.29
2018-06-30T03:48:04.863Z,1014.29
2018-06-30T03:49:14.825Z,1014.3
2018-06-30T03:50:24.783Z,1014.3
2018-06-30T03:51:34.742Z,1014.34
2018-06-30T03:52:44.451Z,1014.32
2018-06-30T03:53:54.407Z,1014.34
2018-06-30T03:55:04.370Z,1014.32
2018-06-30T03:56:14.328Z,1014.33
2018-06-30T03:57:24.031Z,1014.31
2018-06-30T03:58:33.996Z,1014.28
2018-06-30T03:59:43.704Z,1014.26
2018-06-30T04:00:53.411Z,1014.29
2018-06-30T04:02:03.361Z,1014.33
2018-06-30T04:03:13.333Z,1014.3
2018-06-30T04:04:23.294Z,1014.32
2018-06-30T04:05:33.307Z,1014.33
2018-06-30T04:06:43.272Z,1014.39
2018-06-30T04:07:53.240Z,1014.42
2018-06-30T04:09:03.219Z,1014.44
2018-06-30T04:10:13.176Z,1014.46
2018-06-30T04:11:23.169Z,1014.53
2018-06-30T04:12:33.134Z,1014.51
2018-06-30T04:13:43.100Z,1014.54
2018-06-30T04:14:53.083Z,1014.58
2018-06-30T04:16:02.788Z,1014.6
2018-06-30T04:17:12.236Z,1014.58
2018-06-30T04:18:21.688Z,1014.61
2018-06-30T04:19:31.657Z,1014.64
2018-06-30T04:20:41.097Z,1014.61
2018-06-30T04:21:51.063Z,1014.6
2018-06-30T04:23:00.846Z,1014.57
2018-06-30T04:24:10.813Z,1014.62
2018-06-30T04:25:20.779Z,1014.6
2018-06-30T04:26:30.866Z,1014.57
2018-06-30T04:27:40.828Z,1014.58
2018-06-30T04:28:50.543Z,1014.58
2018-06-30T04:30:00.510Z,1014.57
2018-06-30T04:31:10.229Z,1014.62
2018-06-30T04:32:20.193Z,1014.65
2018-06-30T04:33:29.641Z,1014.65
2018-06-30T04:34:39.609Z,1014.7
2018-06-30T04:35:49.586Z,1014.68
2018-06-30T04:36:59.557Z,1014.65
2018-06-30T04:38:09.526Z,1014.68
2018-06-30T04:39:19.500Z,1014.67
2018-06-30T04:40:29.476Z,1014.65
2018-06-30T04:41:39.445Z,1014.68
2018-06-30T04:42:49.415Z,1014.72
2018-06-30T04:43:59.373Z,1014.73
2018-06-30T04:45:09.338Z,1014.74
2018-06-30T04:46:19.474Z,1014.74
2018-06-30T04:47:29.178Z,1014.73
2018-06-30T04:48:39.156Z,1014.75
2018-06-30T04:49:49.133Z,1014.75
2018-06-30T04:50:59.106Z,1014.73
2018-06-30T04:52:09.371Z,1014.74
2018-06-30T04:53:19.353Z,1014.73
2018-06-30T04:54:29.076Z,1014.78
2018-06-30T04:55:38.527Z,1014.79
2018-06-30T04:56:48.248Z,1014.8
2018-06-30T04:57:58.216Z,1014.79
2018-06-30T04:59:08.195Z,1014.79
2018-06-30T05:00:18.176Z,1014.8
2018-06-30T05:01:27.884Z,1014.8
2018-06-30T05:02:37.844Z,1014.76
2018-06-30T05:03:47.820Z,1014.8
2018-06-30T05:04:57.785Z,1014.76
2018-06-30T05:06:07.754Z,1014.81
2018-06-30T05:07:17.455Z,1014.79
2018-06-30T05:08:27.152Z,1014.77
2018-06-30T05:09:36.848Z,1014.83
2018-06-30T05:10:46.814Z,1014.83
2018-06-30T05:11:56.770Z,1014.82
2018-06-30T05:13:06.469Z,1014.83
2018-06-30T05:14:16.498Z,1014.77
2018-06-30T05:15:26.225Z,1014.85
2018-06-30T05:16:36.184Z,1014.81
2018-06-30T05:17:45.886Z,1014.88
2018-06-30T05:18:55.863Z,1014.85
2018-06-30T05:20:05.820Z,1014.84
2018-06-30T05:21:15.774Z,1014.84
2018-06-30T05:22:25.735Z,1014.92
2018-06-30T05:23:35.693Z,1014.9
2018-06-30T05:24:45.391Z,1014.91
2018-06-30T05:25:55.426Z,1014.87
2018-06-30T05:27:05.116Z,1014.94
2018-06-30T05:28:15.093Z,1014.96
2018-06-30T05:29:25.059Z,1014.95
2018-06-30T05:30:35.035Z,1014.93
2018-06-30T05:31:45.011Z,1014.93
2018-06-30T05:32:54.971Z,1014.88
2018-06-30T05:34:04.411Z,1014.92
2018-06-30T05:35:14.110Z,1014.93
2018-06-30T05:36:24.081Z,1014.91
2018-06-30T05:37:34.061Z,1014.96
2018-06-30T05:38:43.513Z,1014.96
2018-06-30T05:39:53.493Z,1014.93
2018-06-30T05:41:03.498Z,1014.96
2018-06-30T05:42:13.459Z,1015.02
2018-06-30T05:43:22.905Z,1014.95
2018-06-30T05:44:32.871Z,1014.96
2018-06-30T05:45:42.569Z,1014.98
2018-06-30T05:46:52.534Z,1014.99
2018-06-30T05:48:02.245Z,1014.96
2018-06-30T05:49:12.214Z,1015
2018-06-30T05:50:21.920Z,1014.99
2018-06-30T05:51:31.891Z,1014.97
2018-06-30T05:52:41.867Z,1014.97
2018-06-30T05:53:51.885Z,1014.96
2018-06-30T05:55:01.840Z,1015.01
2018-06-30T05:56:11.799Z,1014.99
2018-06-30T05:57:21.828Z,1015.01
2018-06-30T05:58:31.810Z,1015.02
2018-06-30T05:59:41.783Z,1015.04
2018-06-30T06:00:51.756Z,1015.02
2018-06-30T06:02:01.714Z,1015.1
2018-06-30T06:03:11.678Z,1015.06
2018-06-30T06:04:21.646Z,1015.06
2018-06-30T06:05:31.360Z,1015.08
2018-06-30T06:06:41.331Z,1015.13
2018-06-30T06:07:51.300Z,1015.14
2018-06-30T06:09:01.267Z,1015.09
2018-06-30T06:10:10.979Z,1015.08
2018-06-30T06:11:20.685Z,1015.04
2018-06-30T06:12:30.648Z,1015.06
2018-06-30T06:15:48.162Z,1015.02
2018-06-30T06:16:57.882Z,1015.04
2018-06-30T06:18:07.858Z,1015.03
2018-06-30T06:19:17.567Z,1015.02
2018-06-30T06:20:27.533Z,1015.04
2018-06-30T06:21:37.246Z,1015.08
2018-06-30T06:22:46.966Z,1015.03
2018-06-30T06:23:56.937Z,1015.04
2018-06-30T06:25:06.900Z,1015.05
2018-06-30T06:26:16.611Z,1015.06
2018-06-30T06:27:26.605Z,1015.05
2018-06-30T06:28:36.849Z,1015.04
2018-06-30T06:29:46.800Z,1015.05
2018-06-30T06:30:56.767Z,1015.08
2018-06-30T06:32:06.729Z,1015.08
2018-06-30T06:33:16.702Z,1015.11
2018-06-30T06:34:26.672Z,1015.07
2018-06-30T06:35:36.663Z,1015.06
2018-06-30T06:36:46.629Z,1015.09
2018-06-30T06:37:56.344Z,1015.04
2018-06-30T06:39:06.312Z,1015.04
2018-06-30T06:40:16.301Z,1015.07
2018-06-30T06:41:26.275Z,1015.07
2018-06-30T06:42:36.343Z,1015.06
2018-06-30T06:43:46.319Z,1015.05
2018-06-30T06:44:56.283Z,1015.05
2018-06-30T06:46:06.257Z,1015.05
2018-06-30T06:47:16.256Z,1015.02
2018-06-30T06:48:25.972Z,1015.02
2018-06-30T06:49:35.924Z,1015.07
2018-06-30T06:50:45.918Z,1015.07
2018-06-30T06:51:55.671Z,1015.15
2018-06-30T06:53:05.640Z,1015.1
2018-06-30T06:54:15.094Z,1015.1
2018-06-30T06:55:25.067Z,1015.05
2018-06-30T06:56:35.028Z,1015.09
2018-06-30T06:57:44.735Z,1015.01
2018-06-30T06:58:54.446Z,1015.01
2018-06-30T07:00:04.158Z,1015.05
2018-06-30T07:01:14.116Z,1015.06
2018-06-30T07:02:23.831Z,1015.06
2018-06-30T07:03:33.803Z,1015.04
2018-06-30T07:04:44.019Z,1015.09
2018-06-30T07:05:53.490Z,1015.03
2018-06-30T07:07:03.461Z,1015.09
2018-06-30T07:08:13.460Z,1015.03
2018-06-30T07:09:23.575Z,1015.07
2018-06-30T07:10:33.280Z,1015.1
2018-06-30T07:11:43.238Z,1015.06
2018-06-30T07:12:53.204Z,1015.07
2018-06-30T07:14:02.926Z,1015.08
2018-06-30T07:15:12.891Z,1015.1
2018-06-30T07:16:23.034Z,1015.14
2018-06-30T07:17:32.750Z,1015.12
2018-06-30T07:18:42.455Z,1015.16
2018-06-30T07:19:52.177Z,1015.16
2018-06-30T07:21:02.162Z,1015.15
2018-06-30T07:22:12.242Z,1015.14
2018-06-30T07:23:21.967Z,1015.17
2018-06-30T07:24:31.993Z,1015.21
2018-06-30T07:25:42.427Z,1015.16
2018-06-30T07:26:52.390Z,1015.2
2018-06-30T07:28:02.347Z,1015.21
2018-06-30T07:29:12.325Z,1015.21
2018-06-30T07:30:22.042Z,1015.22
2018-06-30T07:31:32.014Z,1015.19
2018-06-30T07:32:41.737Z,1015.17
2018-06-30T07:33:51.451Z,1015.2
2018-06-30T07:35:01.429Z,1015.25
2018-06-30T07:36:11.182Z,1015.22
2018-06-30T07:37:21.171Z,1015.18
2018-06-30T07:38:31.463Z,1015.18
2018-06-30T07:39:41.295Z,1015.21
2018-06-30T07:40:51.331Z,1015.15
2018-06-30T07:42:01.291Z,1015.19
2018-06-30T07:43:11.270Z,1015.14
2018-06-30T07:44:21.937Z,1015.16
2018-06-30T07:45:31.381Z,1015.17
2018-06-30T07:46:41.342Z,1015.13
2018-06-30T07:47:51.307Z,1015.21
2018-06-30T07:49:01.285Z,1015.11
2018-06-30T07:50:11.279Z,1015.12
2018-06-30T07:51:21.110Z,1015.2
2018-06-30T07:52:31.123Z,1015.2
2018-06-30T07:53:41.121Z,1015.2
2018-06-30T07:54:51.246Z,1015.17
2018-06-30T07:56:01.230Z,1015.18
2018-06-30T07:57:11.512Z,1015.21
2018-06-30T07:58:21.490Z,1015.18
2018-06-30T07:59:31.622Z,1015.18
2018-06-30T08:00:41.603Z,1015.16
2018-06-30T08:01:51.562Z,1015.23
2018-06-30T08:03:01.719Z,1015.21
2018-06-30T08:04:11.688Z,1015.2
2018-06-30T08:05:21.679Z,1015.18
2018-06-30T08:06:31.129Z,1015.22
2018-06-30T08:07:41.064Z,1015.18
2018-06-30T08:08:51.038Z,1015.19
2018-06-30T08:10:00.658Z,1015.2
2018-06-30T08:11:10.648Z,1015.16
2018-06-30T08:12:20.631Z,1015.12
2018-06-30T08:13:30.596Z,1015.11
2018-06-30T08:14:40.550Z,1015.16
2018-06-30T08:15:50.511Z,1015.17
2018-06-30T08:17:00.264Z,1015.2
2018-06-30T08:18:09.985Z,1015.18
2018-06-30T08:19:19.688Z,1015.23
2018-06-30T08:20:29.668Z,1015.25
2018-06-30T08:21:39.642Z,1015.2
2018-06-30T08:22:49.611Z,1015.2
2018-06-30T08:23:59.591Z,1015.25
2018-06-30T08:25:09.564Z,1015.24
2018-06-30T08:26:19.282Z,1015.22
2018-06-30T08:27:29.001Z,1015.24
2018-06-30T08:28:38.977Z,1015.26
2018-06-30T08:29:48.695Z,1015.25
2018-06-30T08:30:58.657Z,1015.14
2018-06-30T08:32:08.621Z,1015.23
2018-06-30T08:33:18.601Z,1015.24
2018-06-30T08:34:28.364Z,1015.19
2018-06-30T08:35:38.343Z,1015.22
2018-06-30T08:36:48.324Z,1015.19
2018-06-30T08:37:58.287Z,1015.26
2018-06-30T08:39:08.247Z,1015.25
2018-06-30T08:40:18.231Z,1015.19
2018-06-30T08:41:27.970Z,1015.26
2018-06-30T08:42:38.165Z,1015.25
2018-06-30T08:43:48.185Z,1015.3
2018-06-30T08:44:58.167Z,1015.31
2018-06-30T08:46:07.887Z,1015.25
2018-06-30T08:47:17.612Z,1015.29
2018-06-30T08:48:27.348Z,1015.29
2018-06-30T08:49:37.323Z,1015.23
2018-06-30T08:50:47.051Z,1015.27
2018-06-30T08:51:56.766Z,1015.28
2018-06-30T08:53:06.475Z,1015.3
2018-06-30T08:54:16.463Z,1015.3
2018-06-30T08:55:26.537Z,1015.35
2018-06-30T08:56:36.933Z,1015.33
2018-06-30T08:57:46.918Z,1015.34
2018-06-30T08:58:56.893Z,1015.31
2018-06-30T09:00:06.878Z,1015.32
2018-06-30T09:01:16.597Z,1015.34
2018-06-30T09:02:26.311Z,1015.31
2018-06-30T09:03:36.354Z,1015.3
2018-06-30T09:04:46.006Z,1015.29
2018-06-30T09:05:55.979Z,1015.31
2018-06-30T09:07:05.955Z,1015.3
2018-06-30T09:08:15.414Z,1015.31
2018-06-30T09:09:25.386Z,1015.17
2018-06-30T09:10:35.116Z,1015.17
2018-06-30T09:11:45.533Z,1015.38
2018-06-30T09:12:55.326Z,1015.3
2018-06-30T09:14:05.055Z,1015.32
2018-06-30T09:15:15.040Z,1015.29
2018-06-30T09:16:25.043Z,1015.3
2018-06-30T09:17:35.011Z,1015.33
2018-06-30T09:18:44.734Z,1015.31
2018-06-30T09:19:54.454Z,1015.39
2018-06-30T09:21:04.166Z,1015.43
2018-06-30T09:22:14.137Z,1015.39
2018-06-30T09:23:23.848Z,1015.4
2018-06-30T09:24:33.819Z,1015.36
2018-06-30T09:25:43.289Z,1015.31
2018-06-30T09:26:53.003Z,1015.34
2018-06-30T09:28:02.760Z,1015.28
2018-06-30T09:29:12.738Z,1015.33
2018-06-30T09:30:22.717Z,1015.33
2018-06-30T09:31:32.691Z,1015.39
2018-06-30T09:32:42.671Z,1015.4
2018-06-30T09:33:52.393Z,1015.39
2018-06-30T09:35:02.376Z,1015.37
2018-06-30T09:36:12.350Z,1015.4
2018-06-30T09:37:22.332Z,1015.3
2018-06-30T09:38:32.298Z,1015.42
2018-06-30T09:39:42.281Z,1015.35
2018-06-30T09:40:52.261Z,1015.25
2018-06-30T09:42:02.251Z,1015.38
2018-06-30T09:43:12.224Z,1015.34
2018-06-30T09:44:22.253Z,1015.28
2018-06-30T09:45:32.564Z,1015.27
2018-06-30T09:46:42.284Z,1015.25
2018-06-30T09:47:52.267Z,1015.17
2018-06-30T09:49:02.250Z,1015.24
2018-06-30T09:50:11.704Z,1015.22
2018-06-30T09:51:21.685Z,1015.22
2018-06-30T09:52:31.431Z,1015.27
2018-06-30T09:53:41.425Z,1015.32
2018-06-30T09:54:51.411Z,1015.27
2018-06-30T09:56:01.378Z,1015.28
2018-06-30T09:57:11.097Z,1015.24
2018-06-30T09:58:20.558Z,1015.3
2018-06-30T09:59:30.532Z,1015.17
2018-06-30T10:00:40.512Z,1015.27
2018-06-30T10:01:50.488Z,1015.31
2018-06-30T10:03:00.467Z,1015.2
2018-06-30T10:04:10.435Z,1015.26
2018-06-30T10:05:20.421Z,1015.27
2018-06-30T10:06:30.136Z,1015.22
2018-06-30T10:07:40.121Z,1015.24
2018-06-30T10:08:50.095Z,1015.24
2018-06-30T10:09:59.810Z,1015.21
2018-06-30T10:11:09.539Z,1015.23
2018-06-30T10:12:19.531Z,1015.19
2018-06-30T10:13:29.347Z,1015.24
2018-06-30T10:14:39.080Z,1015.2
2018-06-30T10:15:49.070Z,1015.18
2018-06-30T10:16:58.797Z,1015.14
2018-06-30T10:18:08.789Z,1015.13
2018-06-30T10:19:18.618Z,1015.09
2018-06-30T10:20:28.826Z,1015.21
2018-06-30T10:21:38.817Z,1015.2
2018-06-30T10:22:48.793Z,1015.11
2018-06-30T10:23:58.779Z,1015.2
2018-06-30T10:25:08.527Z,1015.17
2018-06-30T10:26:17.749Z,1015.14
2018-06-30T10:27:27.727Z,1015.13
2018-06-30T10:28:37.713Z,1015.04
2018-06-30T10:29:47.707Z,1015.05
2018-06-30T10:30:57.682Z,1015
2018-06-30T10:32:07.408Z,1015
2018-06-30T10:33:16.888Z,1014.98
2018-06-30T10:34:26.641Z,1015.02
2018-06-30T10:35:36.382Z,1015.09
2018-06-30T10:36:46.368Z,1015.01
2018-06-30T10:37:56.107Z,1015.01
2018-06-30T10:39:05.837Z,1015.07
2018-06-30T10:40:15.815Z,1015.03
2018-06-30T10:41:25.782Z,1015.03
2018-06-30T10:42:35.772Z,1015.02
2018-06-30T10:43:45.770Z,1015.03
2018-06-30T10:44:55.488Z,1014.95
2018-06-30T10:46:05.219Z,1015.05
2018-06-30T10:47:14.995Z,1015.05
2018-06-30T10:48:24.989Z,1015.02
2018-06-30T10:49:34.959Z,1015.11
2018-06-30T10:50:44.692Z,1015.01
2018-06-30T10:51:54.662Z,1015.02
2018-06-30T10:53:04.670Z,1015.04
2018-06-30T10:54:14.393Z,1014.98
2018-06-30T10:55:24.179Z,1014.98
2018-06-30T10:56:34.532Z,1014.98
2018-06-30T10:57:43.998Z,1014.98
2018-06-30T10:58:53.978Z,1014.99
2018-06-30T11:00:03.957Z,1014.99
2018-06-30T11:01:14.223Z,1015.03
2018-06-30T11:02:23.962Z,1015.05
2018-06-30T11:03:33.708Z,1014.96
2018-06-30T11:04:43.685Z,1015.02
2018-06-30T11:05:53.497Z,1015.01
2018-06-30T11:07:03.902Z,1014.94
2018-06-30T11:08:13.608Z,1014.89
2018-06-30T11:09:23.606Z,1014.89
2018-06-30T11:10:33.338Z,1014.79
2018-06-30T11:11:43.071Z,1014.71
2018-06-30T11:12:53.056Z,1014.73
2018-06-30T11:14:02.791Z,1014.79
2018-06-30T11:15:12.769Z,1014.78
2018-06-30T11:16:22.482Z,1014.74
2018-06-30T11:17:32.527Z,1014.73
2018-06-30T11:18:42.512Z,1014.78
2018-06-30T11:19:52.513Z,1014.81
2018-06-30T11:21:02.561Z,1014.81
2018-06-30T11:22:12.543Z,1014.78
2018-06-30T11:23:22.376Z,1014.78
2018-06-30T11:24:32.361Z,1014.75
2018-06-30T11:25:42.090Z,1014.74
2018-06-30T11:26:52.079Z,1014.73
2018-06-30T11:28:02.068Z,1014.77
2018-06-30T11:29:12.082Z,1014.75
2018-06-30T11:30:22.164Z,1014.77
2018-06-30T11:31:32.153Z,1014.72
2018-06-30T11:32:42.137Z,1014.79
2018-06-30T11:33:51.863Z,1014.8
2018-06-30T11:35:01.581Z,1014.68
2018-06-30T11:36:11.303Z,1014.73
2018-06-30T11:37:21.264Z,1014.78
2018-06-30T11:38:31.301Z,1014.74
2018-06-30T11:39:41.284Z,1014.71
2018-06-30T11:40:51.402Z,1014.81
2018-06-30T11:42:01.660Z,1014.8
2018-06-30T11:43:11.369Z,1014.73
2018-06-30T11:44:21.369Z,1014.74
2018-06-30T11:45:31.336Z,1014.81
2018-06-30T11:46:41.317Z,1014.78
2018-06-30T11:47:51.316Z,1014.73
2018-06-30T11:49:01.291Z,1014.68
2018-06-30T11:50:11.274Z,1014.72
2018-06-30T11:51:21.136Z,1014.71
2018-06-30T11:52:31.109Z,1014.67
2018-06-30T11:53:41.101Z,1014.72
2018-06-30T11:54:51.083Z,1014.69
2018-06-30T11:56:00.808Z,1014.73
2018-06-30T11:57:10.539Z,1014.69
2018-06-30T11:58:20.514Z,1014.73
2018-06-30T11:59:30.492Z,1014.78
2018-06-30T12:00:40.223Z,1014.74
2018-06-30T12:01:50.195Z,1014.7
2018-06-30T12:03:00.298Z,1014.7
2018-06-30T12:04:10.075Z,1014.7
2018-06-30T12:05:20.058Z,1014.62
2018-06-30T12:06:29.788Z,1014.61
2018-06-30T12:07:39.506Z,1014.64
2018-06-30T12:08:49.227Z,1014.56
2018-06-30T12:09:58.952Z,1014.53
2018-06-30T12:11:08.928Z,1014.55
2018-06-30T12:12:18.913Z,1014.48
2018-06-30T12:13:28.649Z,1014.51
2018-06-30T12:14:38.626Z,1014.53
2018-06-30T12:15:48.094Z,1014.52
2018-06-30T12:16:58.079Z,1014.51
2018-06-30T12:18:08.048Z,1014.53
2018-06-30T12:19:18.022Z,1014.47
2018-06-30T12:20:27.761Z,1014.49
2018-06-30T12:21:37.487Z,1014.49
2018-06-30T12:22:47.473Z,1014.48
2018-06-30T12:23:57.889Z,1014.5
2018-06-30T12:25:07.893Z,1014.52
2018-06-30T12:26:17.857Z,1014.62
2018-06-30T12:27:27.883Z,1014.56
2018-06-30T12:28:37.878Z,1014.49
2018-06-30T12:29:47.855Z,1014.53
2018-06-30T12:30:57.854Z,1014.51
2018-06-30T12:32:07.706Z,1014.51
2018-06-30T12:33:17.926Z,1014.52
2018-06-30T12:34:27.905Z,1014.53
2018-06-30T12:35:37.638Z,1014.51
2018-06-30T12:36:47.636Z,1014.44
2018-06-30T12:37:57.651Z,1014.41
2018-06-30T12:39:07.417Z,1014.41
2018-06-30T12:40:17.640Z,1014.49
2018-06-30T12:41:27.359Z,1014.52
2018-06-30T12:42:37.360Z,1014.59
2018-06-30T12:43:47.341Z,1014.52
2018-06-30T12:44:57.343Z,1014.5
2018-06-30T12:46:07.582Z,1014.58
2018-06-30T12:47:17.302Z,1014.48
2018-06-30T12:48:27.019Z,1014.58
2018-06-30T12:49:36.756Z,1014.54
2018-06-30T12:50:46.717Z,1014.42
2018-06-30T12:51:56.177Z,1014.45
2018-06-30T12:53:06.153Z,1014.46
2018-06-30T12:54:15.905Z,1014.54
2018-06-30T12:55:25.762Z,1014.5
2018-06-30T12:56:35.734Z,1014.47
2018-06-30T12:57:45.718Z,1014.54
2018-06-30T12:58:55.434Z,1014.5
2018-06-30T13:00:05.215Z,1014.49
2018-06-30T13:01:15.196Z,1014.4
2018-06-30T13:02:24.911Z,1014.53
2018-06-30T13:03:34.932Z,1014.49
2018-06-30T13:04:44.836Z,1014.44
2018-06-30T13:05:54.564Z,1014.46
2018-06-30T13:07:04.540Z,1014.48
2018-06-30T13:08:14.527Z,1014.47
2018-06-30T13:09:23.993Z,1014.4
2018-06-30T13:10:33.975Z,1014.36
2018-06-30T13:11:43.708Z,1014.46
2018-06-30T13:12:53.697Z,1014.49
2018-06-30T13:14:03.655Z,1014.48
2018-06-30T13:15:13.629Z,1014.48
2018-06-30T13:16:23.620Z,1014.44
2018-06-30T13:17:33.364Z,1014.46
2018-06-30T13:18:43.687Z,1014.42
2018-06-30T13:19:53.658Z,1014.49
2018-06-30T13:21:03.630Z,1014.51
2018-06-30T13:22:13.606Z,1014.44
2018-06-30T13:23:23.582Z,1014.5
2018-06-30T13:24:33.555Z,1014.51
2018-06-30T13:25:43.274Z,1014.44
2018-06-30T13:26:53.267Z,1014.45
2018-06-30T13:28:03.249Z,1014.45
2018-06-30T13:29:12.962Z,1014.37
2018-06-30T13:30:22.940Z,1014.39
2018-06-30T13:31:32.665Z,1014.43
2018-06-30T13:32:42.383Z,1014.43
2018-06-30T13:33:51.846Z,1014.42
2018-06-30T13:35:01.568Z,1014.44
2018-06-30T13:36:11.288Z,1014.44
2018-06-30T13:37:21.255Z,1014.46
2018-06-30T13:38:31.219Z,1014.46
2018-06-30T13:39:40.961Z,1014.4
2018-06-30T13:40:50.893Z,1014.41
2018-06-30T13:42:00.709Z,1014.44
2018-06-30T13:43:10.818Z,1014.48
2018-06-30T13:44:20.954Z,1014.43
2018-06-30T13:45:30.949Z,1014.5
2018-06-30T13:46:40.653Z,1014.43
2018-06-30T13:47:50.640Z,1014.39
2018-06-30T13:49:00.111Z,1014.33
2018-06-30T13:50:10.106Z,1014.31
2018-06-30T13:51:20.093Z,1014.28
2018-06-30T13:52:30.087Z,1014.26
2018-06-30T13:53:39.968Z,1014.31
2018-06-30T13:54:49.707Z,1014.27
2018-06-30T13:55:59.677Z,1014.26
2018-06-30T13:57:09.659Z,1014.29
2018-06-30T13:58:19.386Z,1014.28
2018-06-30T13:59:29.111Z,1014.28
2018-06-30T14:00:39.080Z,1014.27
2018-06-30T14:01:48.888Z,1014.28
2018-06-30T14:02:58.602Z,1014.29
2018-06-30T14:04:08.067Z,1014.32
2018-06-30T14:05:18.058Z,1014.26
2018-06-30T14:06:28.040Z,1014.31
2018-06-30T14:07:38.007Z,1014.29
2018-06-30T14:08:47.980Z,1014.31
2018-06-30T14:09:57.978Z,1014.31
2018-06-30T14:11:07.943Z,1014.27